createdAt,value
2016-10-21T00:00:23.372Z,1008.02
2016-10-21T00:01:23.389Z,1008.02
2016-10-21T00:02:23.412Z,1008.02
2016-10-21T00:03:23.432Z,1008
2016-10-21T00:04:23.451Z,1008.01
2016-10-21T00:05:23.470Z,1008
2016-10-21T00:06:23.493Z,1007.98
2016-10-21T00:07:23.514Z,1007.97
2016-10-21T00:08:23.531Z,1007.95
2016-10-21T00:10:23.573Z,1007.94
2016-10-21T00:11:23.593Z,1007.92
2016-10-21T00:12:23.615Z,1007.91
2016-10-21T00:13:23.633Z,1007.97
2016-10-21T00:14:23.656Z,1007.89
2016-10-21T00:15:23.676Z,1007.9
2016-10-21T00:16:23.693Z,1007.9
2016-10-21T00:17:23.714Z,1007.87
2016-10-21T00:18:23.738Z,1007.84
2016-10-21T00:19:23.757Z,1007.83
2016-10-21T00:20:23.777Z,1007.82
2016-10-21T00:21:23.795Z,1007.84
2016-10-21T00:22:23.819Z,1007.8
2016-10-21T00:23:23.836Z,1007.78
2016-10-21T00:24:23.858Z,1007.82
2016-10-21T00:26:23.897Z,1007.79
2016-10-21T00:27:23.919Z,1007.77
2016-10-21T00:28:23.939Z,1007.78
2016-10-21T00:29:23.958Z,1007.73
2016-10-21T00:30:23.979Z,1007.71
2016-10-21T00:31:23.998Z,1007.74
2016-10-21T00:32:24.019Z,1007.73
2016-10-21T00:33:24.042Z,1007.72
2016-10-21T00:34:24.059Z,1007.71
2016-10-21T00:35:24.081Z,1007.7
2016-10-21T00:36:24.101Z,1007.71
2016-10-21T00:37:24.120Z,1007.7
2016-10-21T00:38:24.139Z,1007.7
2016-10-21T00:39:24.163Z,1007.69
2016-10-21T00:40:24.183Z,1007.68
2016-10-21T00:42:24.222Z,1007.67
2016-10-21T00:43:24.243Z,1007.7
2016-10-21T00:44:24.262Z,1007.67
2016-10-21T00:45:24.283Z,1007.7
2016-10-21T00:46:24.302Z,1007.69
2016-10-21T00:47:24.325Z,1007.69
2016-10-21T00:48:24.343Z,1007.67
2016-10-21T00:49:24.362Z,1007.71
2016-10-21T00:50:24.385Z,1007.71
2016-10-21T00:51:24.403Z,1007.68
2016-10-21T00:52:24.423Z,1007.67
2016-10-21T00:53:24.443Z,1007.68
2016-10-21T00:54:24.464Z,1007.69
2016-10-21T00:55:24.486Z,1007.66
2016-10-21T00:56:24.506Z,1007.67
2016-10-21T00:58:24.545Z,1007.69
2016-10-21T00:59:24.565Z,1007.7
2016-10-21T01:00:24.584Z,1007.71
2016-10-21T01:01:24.604Z,1007.73
2016-10-21T01:02:24.625Z,1007.71
2016-10-21T01:03:24.644Z,1007.69
2016-10-21T01:04:24.665Z,1007.67
2016-10-21T01:05:24.685Z,1007.64
2016-10-21T01:06:24.707Z,1007.63
2016-10-21T01:07:24.725Z,1007.58
2016-10-21T01:08:24.747Z,1007.58
2016-10-21T01:09:24.765Z,1007.55
2016-10-21T01:10:24.788Z,1007.51
2016-10-21T01:11:24.805Z,1007.48
2016-10-21T01:13:24.846Z,1007.48
2016-10-21T01:14:24.868Z,1007.47
2016-10-21T01:15:24.891Z,1007.46
2016-10-21T01:16:24.908Z,1007.43
2016-10-21T01:17:24.926Z,1007.36
2016-10-21T01:18:24.948Z,1007.31
2016-10-21T01:19:24.966Z,1007.26
2016-10-21T01:20:24.988Z,1007.23
2016-10-21T01:21:25.007Z,1007.2
2016-10-21T01:22:25.025Z,1007.18
2016-10-21T01:23:25.047Z,1007.11
2016-10-21T01:24:25.065Z,1007.1
2016-10-21T01:25:25.086Z,1007.11
2016-10-21T01:26:25.105Z,1007.11
2016-10-21T01:27:25.125Z,1007.08
2016-10-21T01:28:25.145Z,1007.05
2016-10-21T01:29:25.166Z,1007.05
2016-10-21T01:30:25.186Z,1007.05
2016-10-21T01:31:25.206Z,1007.05
2016-10-21T01:32:25.223Z,1007.04
2016-10-21T01:33:25.245Z,1006.99
2016-10-21T01:34:25.263Z,1006.99
2016-10-21T01:35:25.284Z,1007
2016-10-21T01:36:25.303Z,1006.99
2016-10-21T01:37:25.325Z,1006.98
2016-10-21T01:38:25.345Z,1007
2016-10-21T01:39:25.365Z,1007.02
2016-10-21T01:40:25.382Z,1007.02
2016-10-21T01:41:25.404Z,1007.06
2016-10-21T01:42:25.422Z,1007.05
2016-10-21T01:43:25.443Z,1007.02
2016-10-21T01:45:25.482Z,1007.03
2016-10-21T01:46:25.503Z,1007.06
2016-10-21T01:47:25.521Z,1007.03
2016-10-21T01:48:25.542Z,1007.04
2016-10-21T01:49:25.560Z,1007.09
2016-10-21T01:50:25.580Z,1007.09
2016-10-21T01:51:25.601Z,1007.12
2016-10-21T01:52:25.621Z,1007.14
2016-10-21T01:53:25.640Z,1007.13
2016-10-21T01:54:25.661Z,1007.17
2016-10-21T01:55:25.678Z,1007.17
2016-10-21T01:56:25.701Z,1007.19
2016-10-21T01:57:25.719Z,1007.23
2016-10-21T01:58:25.740Z,1007.2
2016-10-21T01:59:25.758Z,1007.18
2016-10-21T02:01:25.799Z,1007.21
2016-10-21T02:02:25.820Z,1007.19
2016-10-21T02:03:25.838Z,1007.22
2016-10-21T02:04:25.858Z,1007.18
2016-10-21T02:05:25.879Z,1007.2
2016-10-21T02:06:25.900Z,1007.18
2016-10-21T02:07:25.920Z,1007.14
2016-10-21T02:08:25.990Z,1007.12
2016-10-21T02:09:25.972Z,1007.12
2016-10-21T02:10:25.977Z,1007.12
2016-10-21T02:11:26.000Z,1007.08
2016-10-21T02:12:26.070Z,1007.1
2016-10-21T02:13:26.037Z,1007.08
2016-10-21T02:14:26.059Z,1007.07
2016-10-21T02:15:26.077Z,1007.02
2016-10-21T02:17:26.119Z,1006.99
2016-10-21T02:18:26.139Z,1007.02
2016-10-21T02:19:26.160Z,1007.01
2016-10-21T02:20:26.177Z,1007
2016-10-21T02:21:26.197Z,1006.99
2016-10-21T02:22:26.217Z,1006.94
2016-10-21T02:23:26.238Z,1007
2016-10-21T02:24:26.259Z,1006.99
2016-10-21T02:25:26.280Z,1006.98
2016-10-21T02:26:26.300Z,1006.93
2016-10-21T02:27:26.317Z,1006.94
2016-10-21T02:28:26.337Z,1006.94
2016-10-21T02:29:26.358Z,1006.91
2016-10-21T02:30:26.378Z,1006.92
2016-10-21T02:31:26.397Z,1006.93
2016-10-21T02:33:26.438Z,1006.91
2016-10-21T02:34:26.461Z,1006.91
2016-10-21T02:35:26.480Z,1006.88
2016-10-21T02:36:26.500Z,1006.9
2016-10-21T02:37:26.518Z,1006.91
2016-10-21T02:38:26.538Z,1006.9
2016-10-21T02:39:26.560Z,1006.9
2016-10-21T02:40:26.578Z,1006.93
2016-10-21T02:41:26.601Z,1006.91
2016-10-21T02:42:26.618Z,1006.92
2016-10-21T02:43:26.641Z,1006.88
2016-10-21T02:44:26.659Z,1006.91
2016-10-21T02:45:26.682Z,1006.88
2016-10-21T02:46:26.702Z,1006.9
2016-10-21T02:48:26.742Z,1006.89
2016-10-21T02:49:26.760Z,1006.94
2016-10-21T02:50:26.780Z,1006.91
2016-10-21T02:51:26.801Z,1006.92
2016-10-21T02:52:26.821Z,1006.95
2016-10-21T02:53:26.840Z,1006.96
2016-10-21T02:54:26.861Z,1006.93
2016-10-21T02:55:26.883Z,1006.97
2016-10-21T02:56:26.900Z,1006.96
2016-10-21T02:57:26.924Z,1006.92
2016-10-21T02:58:26.943Z,1006.94
2016-10-21T02:59:26.963Z,1006.89
2016-10-21T03:00:26.983Z,1006.9
2016-10-21T03:01:27.004Z,1006.93
2016-10-21T03:02:27.022Z,1006.95
2016-10-21T03:03:27.042Z,1006.95
2016-10-21T03:04:27.064Z,1006.93
2016-10-21T03:05:27.083Z,1006.94
2016-10-21T03:06:27.103Z,1006.92
2016-10-21T03:07:27.124Z,1006.91
2016-10-21T03:08:27.145Z,1006.97
2016-10-21T03:09:27.163Z,1006.96
2016-10-21T03:10:27.183Z,1006.94
2016-10-21T03:11:27.203Z,1006.9
2016-10-21T03:12:27.225Z,1006.9
2016-10-21T03:13:27.243Z,1006.88
2016-10-21T03:14:27.266Z,1006.91
2016-10-21T03:15:27.286Z,1006.91
2016-10-21T03:16:27.306Z,1006.91
2016-10-21T03:17:27.326Z,1006.9
2016-10-21T03:18:27.345Z,1006.9
2016-10-21T03:20:27.384Z,1006.85
2016-10-21T03:21:27.406Z,1006.81
2016-10-21T03:22:27.424Z,1006.81
2016-10-21T03:23:27.447Z,1006.82
2016-10-21T03:24:27.465Z,1006.8
2016-10-21T03:25:27.487Z,1006.84
2016-10-21T03:26:27.507Z,1006.81
2016-10-21T03:27:27.527Z,1006.8
2016-10-21T03:28:27.547Z,1006.82
2016-10-21T03:29:27.567Z,1006.81
2016-10-21T03:30:27.585Z,1006.78
2016-10-21T03:31:27.606Z,1006.82
2016-10-21T03:32:27.628Z,1006.85
2016-10-21T03:33:27.647Z,1006.83
2016-10-21T03:34:27.668Z,1006.88
2016-10-21T03:36:27.709Z,1006.86
2016-10-21T03:37:27.726Z,1006.85
2016-10-21T03:38:27.749Z,1006.84
2016-10-21T03:39:27.769Z,1006.85
2016-10-21T03:40:27.789Z,1006.85
2016-10-21T03:41:27.807Z,1006.86
2016-10-21T03:42:27.829Z,1006.89
2016-10-21T03:43:27.850Z,1006.84
2016-10-21T03:44:27.869Z,1006.89
2016-10-21T03:45:27.888Z,1006.88
2016-10-21T03:46:27.909Z,1006.83
2016-10-21T03:47:27.928Z,1006.83
2016-10-21T03:48:27.950Z,1006.87
2016-10-21T03:49:27.968Z,1006.88
2016-10-21T03:50:27.991Z,1006.86
2016-10-21T03:52:28.030Z,1006.86
2016-10-21T03:53:28.051Z,1006.85
2016-10-21T03:54:28.071Z,1006.88
2016-10-21T03:55:28.089Z,1006.86
2016-10-21T03:56:28.111Z,1006.86
2016-10-21T03:57:28.132Z,1006.87
2016-10-21T03:58:28.152Z,1006.86
2016-10-21T03:59:28.173Z,1006.87
2016-10-21T04:00:28.192Z,1006.88
2016-10-21T04:01:28.210Z,1006.88
2016-10-21T04:02:28.232Z,1006.85
2016-10-21T04:03:28.252Z,1006.86
2016-10-21T04:04:28.270Z,1006.87
2016-10-21T04:05:28.291Z,1006.84
2016-10-21T04:06:28.314Z,1006.83
2016-10-21T04:08:28.353Z,1006.84
2016-10-21T04:09:28.372Z,1006.85
2016-10-21T04:10:28.393Z,1006.82
2016-10-21T04:11:28.414Z,1006.84
2016-10-21T04:12:28.432Z,1006.85
2016-10-21T04:13:28.452Z,1006.84
2016-10-21T04:14:28.474Z,1006.83
2016-10-21T04:15:28.492Z,1006.83
2016-10-21T04:16:28.515Z,1006.82
2016-10-21T04:17:28.534Z,1006.85
2016-10-21T04:18:28.555Z,1006.84
2016-10-21T04:19:28.573Z,1006.83
2016-10-21T04:20:28.596Z,1006.85
2016-10-21T04:21:28.617Z,1006.81
2016-10-21T04:23:28.657Z,1006.8
2016-10-21T04:24:28.676Z,1006.79
2016-10-21T04:25:28.695Z,1006.82
2016-10-21T04:26:28.715Z,1006.8
2016-10-21T04:27:28.738Z,1006.81
2016-10-21T04:28:28.755Z,1006.83
2016-10-21T04:29:28.775Z,1006.84
2016-10-21T04:30:28.796Z,1006.81
2016-10-21T04:31:28.817Z,1006.81
2016-10-21T04:32:28.836Z,1006.82
2016-10-21T04:33:28.858Z,1006.83
2016-10-21T04:34:28.877Z,1006.78
2016-10-21T04:35:28.898Z,1006.81
2016-10-21T04:36:28.918Z,1006.79
2016-10-21T04:37:28.937Z,1006.79
2016-10-21T04:38:28.958Z,1006.76
2016-10-21T04:39:28.977Z,1006.78
2016-10-21T04:40:29.000Z,1006.75
2016-10-21T04:41:29.018Z,1006.77
2016-10-21T04:42:29.037Z,1006.73
2016-10-21T04:43:29.060Z,1006.77
2016-10-21T04:44:29.079Z,1006.76
2016-10-21T04:45:29.101Z,1006.77
2016-10-21T04:46:29.119Z,1006.77
2016-10-21T04:47:29.139Z,1006.74
2016-10-21T04:48:29.159Z,1006.76
2016-10-21T04:49:29.182Z,1006.78
2016-10-21T04:50:29.201Z,1006.78
2016-10-21T04:51:29.222Z,1006.77
2016-10-21T04:52:29.240Z,1006.77
2016-10-21T04:53:29.262Z,1006.79
2016-10-21T04:55:29.304Z,1006.79
2016-10-21T04:56:29.322Z,1006.82
2016-10-21T04:57:29.341Z,1006.88
2016-10-21T04:58:29.364Z,1006.87
2016-10-21T04:59:29.382Z,1006.87
2016-10-21T05:00:29.404Z,1006.88
2016-10-21T05:01:29.421Z,1006.88
2016-10-21T05:02:29.444Z,1006.86
2016-10-21T05:03:29.715Z,1006.83
2016-10-21T05:04:29.482Z,1006.84
2016-10-21T05:05:29.503Z,1006.82
2016-10-21T05:06:29.525Z,1006.85
2016-10-21T05:07:29.543Z,1006.87
2016-10-21T05:08:29.563Z,1006.93
2016-10-21T05:09:29.583Z,1006.93
2016-10-21T05:11:29.624Z,1006.92
2016-10-21T05:12:29.645Z,1006.92
2016-10-21T05:13:29.666Z,1006.93
2016-10-21T05:14:29.685Z,1006.94
2016-10-21T05:15:29.704Z,1006.94
2016-10-21T05:16:29.725Z,1006.93
2016-10-21T05:17:29.747Z,1006.91
2016-10-21T05:18:29.766Z,1006.89
2016-10-21T05:19:29.785Z,1006.91
2016-10-21T05:20:29.807Z,1006.95
2016-10-21T05:21:29.828Z,1006.98
2016-10-21T05:22:29.846Z,1006.95
2016-10-21T05:23:29.868Z,1006.94
2016-10-21T05:24:29.886Z,1006.97
2016-10-21T05:25:29.907Z,1006.99
2016-10-21T05:27:29.947Z,1006.99
2016-10-21T05:28:29.968Z,1006.97
2016-10-21T05:29:29.988Z,1006.94
2016-10-21T05:30:30.009Z,1006.95
2016-10-21T05:31:30.030Z,1006.94
2016-10-21T05:32:30.050Z,1006.99
2016-10-21T05:33:30.071Z,1006.98
2016-10-21T05:34:30.088Z,1007.02
2016-10-21T05:35:30.109Z,1007.05
2016-10-21T05:36:30.129Z,1007.07
2016-10-21T05:37:30.151Z,1007.03
2016-10-21T05:38:30.170Z,1007.04
2016-10-21T05:39:30.191Z,1007.05
2016-10-21T05:40:30.210Z,1007.03
2016-10-21T05:41:30.229Z,1007.06
2016-10-21T05:43:30.473Z,1007
2016-10-21T05:44:30.295Z,1007.04
2016-10-21T05:45:30.312Z,1007.04
2016-10-21T05:46:30.333Z,1007.03
2016-10-21T05:47:30.351Z,1007.03
2016-10-21T05:48:30.372Z,1007.04
2016-10-21T05:49:30.393Z,1007.05
2016-10-21T05:50:30.413Z,1007.1
2016-10-21T05:51:30.434Z,1007.07
2016-10-21T05:52:30.451Z,1007.1
2016-10-21T05:53:30.472Z,1007.14
2016-10-21T05:54:30.494Z,1007.14
2016-10-21T05:55:30.512Z,1007.16
2016-10-21T05:56:30.533Z,1007.18
2016-10-21T05:58:30.576Z,1007.16
2016-10-21T05:59:30.596Z,1007.2
2016-10-21T06:00:30.614Z,1007.17
2016-10-21T06:01:30.634Z,1007.19
2016-10-21T06:02:30.657Z,1007.19
2016-10-21T06:03:30.676Z,1007.17
2016-10-21T06:04:30.694Z,1007.21
2016-10-21T06:05:30.717Z,1007.21
2016-10-21T06:06:30.737Z,1007.19
2016-10-21T06:07:30.755Z,1007.2
2016-10-21T06:08:30.778Z,1007.21
2016-10-21T06:09:30.796Z,1007.23
2016-10-21T06:10:30.815Z,1007.17
2016-10-21T06:11:30.836Z,1007.19
2016-10-21T06:12:30.856Z,1007.16
2016-10-21T06:13:30.888Z,1007.15
2016-10-21T06:14:30.898Z,1007.14
2016-10-21T06:15:30.919Z,1007.12
2016-10-21T06:16:30.939Z,1007.13
2016-10-21T06:17:30.956Z,1007.11
2016-10-21T06:18:30.980Z,1007.17
2016-10-21T06:19:31.000Z,1007.17
2016-10-21T06:20:31.020Z,1007.18
2016-10-21T06:21:31.040Z,1007.17
2016-10-21T06:22:31.061Z,1007.16
2016-10-21T06:23:31.080Z,1007.19
2016-10-21T06:24:31.101Z,1007.19
2016-10-21T06:25:31.119Z,1007.22
2016-10-21T06:26:31.143Z,1007.2
2016-10-21T06:27:31.160Z,1007.27
2016-10-21T06:28:31.182Z,1007.28
2016-10-21T06:30:31.223Z,1007.28
2016-10-21T06:31:31.250Z,1007.27
2016-10-21T06:32:31.263Z,1007.29
2016-10-21T06:33:31.281Z,1007.28
2016-10-21T06:34:31.304Z,1007.24
2016-10-21T06:35:31.326Z,1007.28
2016-10-21T06:36:31.342Z,1007.26
2016-10-21T06:37:31.365Z,1007.28
2016-10-21T06:38:31.385Z,1007.3
2016-10-21T06:39:31.404Z,1007.31
2016-10-21T06:40:31.426Z,1007.32
2016-10-21T06:41:31.446Z,1007.34
2016-10-21T06:42:31.467Z,1007.33
2016-10-21T06:43:31.484Z,1007.36
2016-10-21T06:44:31.506Z,1007.39
2016-10-21T06:46:31.546Z,1007.37
2016-10-21T06:47:31.565Z,1007.36
2016-10-21T06:48:31.588Z,1007.35
2016-10-21T06:49:31.609Z,1007.39
2016-10-21T06:50:31.626Z,1007.38
2016-10-21T06:51:31.649Z,1007.38
2016-10-21T06:52:31.670Z,1007.4
2016-10-21T06:53:31.688Z,1007.4
2016-10-21T06:54:31.710Z,1007.38
2016-10-21T06:55:31.728Z,1007.41
2016-10-21T06:56:31.749Z,1007.41
2016-10-21T06:57:31.772Z,1007.42
2016-10-21T06:58:31.840Z,1007.4
2016-10-21T06:59:31.810Z,1007.4
2016-10-21T07:00:31.831Z,1007.37
2016-10-21T07:02:31.873Z,1007.39
2016-10-21T07:03:31.894Z,1007.41
2016-10-21T07:04:31.915Z,1007.4
2016-10-21T07:05:31.932Z,1007.4
2016-10-21T07:06:31.955Z,1007.46
2016-10-21T07:07:31.976Z,1007.48
2016-10-21T07:08:31.995Z,1007.43
2016-10-21T07:09:32.016Z,1007.44
2016-10-21T07:10:32.037Z,1007.44
2016-10-21T07:11:32.058Z,1007.42
2016-10-21T07:12:32.076Z,1007.43
2016-10-21T07:13:32.098Z,1007.41
2016-10-21T07:14:32.120Z,1007.44
2016-10-21T07:15:32.141Z,1007.49
2016-10-21T07:16:32.160Z,1007.53
2016-10-21T07:18:32.201Z,1007.58
2016-10-21T07:19:32.224Z,1007.56
2016-10-21T07:20:32.241Z,1007.55
2016-10-21T07:21:32.264Z,1007.57
2016-10-21T07:22:32.283Z,1007.58
2016-10-21T07:23:32.303Z,1007.63
2016-10-21T07:24:32.324Z,1007.61
2016-10-21T07:25:32.345Z,1007.62
2016-10-21T07:26:32.366Z,1007.61
2016-10-21T07:27:32.386Z,1007.66
2016-10-21T07:28:32.407Z,1007.69
2016-10-21T07:29:32.431Z,1007.67
2016-10-21T07:30:32.452Z,1007.7
2016-10-21T07:31:32.470Z,1007.65
2016-10-21T07:33:32.513Z,1007.64
2016-10-21T07:34:32.536Z,1007.63
2016-10-21T07:35:32.554Z,1007.66
2016-10-21T07:36:32.576Z,1007.64
2016-10-21T07:37:32.598Z,1007.64
2016-10-21T07:38:32.617Z,1007.67
2016-10-21T07:39:32.640Z,1007.69
2016-10-21T07:40:32.662Z,1007.71
2016-10-21T07:41:32.680Z,1007.68
2016-10-21T07:42:32.703Z,1007.67
2016-10-21T07:43:32.722Z,1007.7
2016-10-21T07:44:32.746Z,1007.68
2016-10-21T07:45:32.764Z,1007.7
2016-10-21T07:46:32.788Z,1007.7
2016-10-21T07:47:32.807Z,1007.66
2016-10-21T07:48:32.929Z,1007.68
2016-10-21T07:49:32.851Z,1007.69
2016-10-21T07:50:32.870Z,1007.64
2016-10-21T07:51:32.892Z,1007.68
2016-10-21T07:52:32.913Z,1007.69
2016-10-21T07:53:32.936Z,1007.68
2016-10-21T07:54:32.958Z,1007.66
2016-10-21T07:56:32.998Z,1007.69
2016-10-21T07:57:33.020Z,1007.74
2016-10-21T07:58:33.043Z,1007.7
2016-10-21T07:59:33.066Z,1007.7
2016-10-21T08:00:33.090Z,1007.72
2016-10-21T08:01:33.105Z,1007.69
2016-10-21T08:02:33.126Z,1007.72
2016-10-21T08:03:33.147Z,1007.76
2016-10-21T08:05:33.192Z,1007.72
2016-10-21T08:06:33.215Z,1007.76
2016-10-21T08:07:33.235Z,1007.73
2016-10-21T08:08:33.253Z,1007.74
2016-10-21T08:09:33.276Z,1007.76
2016-10-21T08:10:33.296Z,1007.77
2016-10-21T08:11:33.319Z,1007.76
2016-10-21T08:12:33.338Z,1007.73
2016-10-21T08:13:33.361Z,1007.75
2016-10-21T08:14:33.379Z,1007.75
2016-10-21T08:15:33.453Z,1007.75
2016-10-21T08:16:33.423Z,1007.76
2016-10-21T08:17:33.446Z,1007.74
2016-10-21T08:18:33.465Z,1007.75
2016-10-21T08:19:33.487Z,1007.79
2016-10-21T08:21:33.780Z,1007.76
2016-10-21T08:22:33.549Z,1007.79
2016-10-21T08:23:33.569Z,1007.81
2016-10-21T08:24:33.592Z,1007.81
2016-10-21T08:25:33.613Z,1007.82
2016-10-21T08:26:33.632Z,1007.82
2016-10-21T08:27:33.656Z,1007.83
2016-10-21T08:28:33.674Z,1007.86
2016-10-21T08:29:33.697Z,1007.83
2016-10-21T08:30:33.718Z,1007.83
2016-10-21T08:31:33.737Z,1007.88
2016-10-21T08:32:33.758Z,1007.84
2016-10-21T08:33:33.779Z,1007.85
2016-10-21T08:34:33.800Z,1007.89
2016-10-21T08:35:33.823Z,1007.9
2016-10-21T08:37:33.865Z,1007.86
2016-10-21T08:38:33.884Z,1007.86
2016-10-21T08:39:33.907Z,1007.89
2016-10-21T08:40:33.925Z,1007.9
2016-10-21T08:41:33.947Z,1007.88
2016-10-21T08:42:33.968Z,1007.93
2016-10-21T08:43:33.989Z,1007.91
2016-10-21T08:44:34.012Z,1007.91
2016-10-21T08:45:34.031Z,1007.93
2016-10-21T08:46:34.055Z,1007.91
2016-10-21T08:47:34.073Z,1007.91
2016-10-21T08:48:34.095Z,1007.92
2016-10-21T08:49:34.116Z,1007.93
2016-10-21T08:50:34.138Z,1007.91
2016-10-21T08:51:34.158Z,1007.89
2016-10-21T08:53:34.203Z,1007.9
2016-10-21T08:54:34.225Z,1007.93
2016-10-21T08:55:34.244Z,1007.95
2016-10-21T08:56:34.266Z,1007.99
2016-10-21T08:57:34.287Z,1007.97
2016-10-21T08:58:34.308Z,1007.98
2016-10-21T08:59:34.332Z,1007.96
2016-10-21T09:00:34.351Z,1007.95
2016-10-21T09:01:34.376Z,1007.94
2016-10-21T09:02:34.395Z,1007.94
2016-10-21T09:03:34.418Z,1007.97
2016-10-21T09:04:34.438Z,1007.97
2016-10-21T09:05:34.460Z,1007.98
2016-10-21T09:06:34.484Z,1007.98
2016-10-21T09:08:34.526Z,1007.98
2016-10-21T09:09:34.547Z,1007.98
2016-10-21T09:10:34.569Z,1008.02
2016-10-21T09:11:34.596Z,1008.03
2016-10-21T09:12:34.615Z,1008.06
2016-10-21T09:13:34.637Z,1008.02
2016-10-21T09:14:34.958Z,1008.05
2016-10-21T09:15:34.677Z,1008.02
2016-10-21T09:16:34.701Z,1008.03
2016-10-21T09:17:34.723Z,1008.01
2016-10-21T09:18:34.745Z,1008.02
2016-10-21T09:19:34.767Z,1007.98
2016-10-21T09:20:34.789Z,1008.04
2016-10-21T09:21:34.811Z,1008.02
2016-10-21T09:22:34.833Z,1008.05
2016-10-21T09:23:34.858Z,1008.09
2016-10-21T09:24:34.877Z,1008.06
2016-10-21T09:25:34.901Z,1008.05
2016-10-21T09:26:34.922Z,1008.07
2016-10-21T09:27:34.943Z,1008.11
2016-10-21T09:28:34.967Z,1008.09
2016-10-21T09:29:34.989Z,1008.05
2016-10-21T09:30:35.013Z,1008.06
2016-10-21T09:31:35.035Z,1008.1
2016-10-21T09:32:35.055Z,1008.08
2016-10-21T09:33:35.077Z,1008.09
2016-10-21T09:34:35.100Z,1008.11
2016-10-21T09:35:35.122Z,1008.08
2016-10-21T09:36:35.144Z,1008.08
2016-10-21T09:37:35.167Z,1008.12
2016-10-21T09:38:35.189Z,1008.1
2016-10-21T09:40:35.237Z,1008.12
2016-10-21T09:41:35.258Z,1008.13
2016-10-21T09:42:35.280Z,1008.16
2016-10-21T09:43:35.302Z,1008.14
2016-10-21T09:44:35.325Z,1008.19
2016-10-21T09:45:35.598Z,1008.18
2016-10-21T09:46:35.372Z,1008.21
2016-10-21T09:47:35.395Z,1008.2
2016-10-21T09:48:35.618Z,1008.25
2016-10-21T09:49:35.440Z,1008.19
2016-10-21T09:50:35.462Z,1008.27
2016-10-21T09:51:35.483Z,1008.25
2016-10-21T09:52:35.509Z,1008.28
2016-10-21T09:53:35.528Z,1008.3
2016-10-21T09:54:35.551Z,1008.18
2016-10-21T09:56:35.597Z,1008.23
2016-10-21T09:57:35.620Z,1008.23
2016-10-21T09:58:35.642Z,1008.21
2016-10-21T09:59:35.917Z,1008.23
2016-10-21T10:00:35.689Z,1008.22
2016-10-21T10:01:35.712Z,1008.2
2016-10-21T10:02:35.735Z,1008.18
2016-10-21T10:03:35.759Z,1008.17
2016-10-21T10:04:35.778Z,1008.16
2016-10-21T10:05:35.800Z,1008.22
2016-10-21T10:06:35.823Z,1008.18
2016-10-21T10:07:35.846Z,1008.2
2016-10-21T10:08:35.868Z,1008.18
2016-10-21T10:09:35.891Z,1008.14
2016-10-21T10:10:35.914Z,1008.12
2016-10-21T10:12:35.960Z,1008.12
2016-10-21T10:13:35.981Z,1008.14
2016-10-21T10:14:36.030Z,1008.16
2016-10-21T10:15:36.026Z,1008.16
2016-10-21T10:16:36.050Z,1008.12
2016-10-21T10:17:36.071Z,1008.12
2016-10-21T10:18:36.095Z,1008.1
2016-10-21T10:19:36.117Z,1008.13
2016-10-21T10:20:36.139Z,1008.11
2016-10-21T10:21:36.160Z,1008.18
2016-10-21T10:22:36.184Z,1008.12
2016-10-21T10:23:36.205Z,1008.1
2016-10-21T10:24:36.227Z,1008.13
2016-10-21T10:25:36.251Z,1008.13
2016-10-21T10:26:36.271Z,1008.14
2016-10-21T10:28:36.316Z,1008.13
2016-10-21T10:29:36.338Z,1008.12
2016-10-21T10:30:36.362Z,1008.14
2016-10-21T10:31:36.382Z,1008.12
2016-10-21T10:32:36.405Z,1008.1
2016-10-21T10:33:36.427Z,1008.08
2016-10-21T10:34:36.449Z,1008.1
2016-10-21T10:35:36.474Z,1008.15
2016-10-21T10:36:36.495Z,1008.15
2016-10-21T10:37:36.518Z,1008.12
2016-10-21T10:38:36.538Z,1008.15
2016-10-21T10:39:36.562Z,1008.08
2016-10-21T10:40:36.583Z,1008.15
2016-10-21T10:41:36.608Z,1008.11
2016-10-21T10:43:36.653Z,1008.11
2016-10-21T10:44:36.672Z,1008.08
2016-10-21T10:45:36.695Z,1008.1
2016-10-21T10:46:36.719Z,1008.11
2016-10-21T10:47:36.742Z,1008.09
2016-10-21T10:48:36.765Z,1008.12
2016-10-21T10:49:36.785Z,1008.08
2016-10-21T10:50:36.808Z,1008.11
2016-10-21T10:51:36.828Z,1008.09
2016-10-21T10:52:36.851Z,1008.11
2016-10-21T10:53:36.876Z,1008.11
2016-10-21T10:54:36.896Z,1008.11
2016-10-21T10:55:36.917Z,1008.09
2016-10-21T10:56:36.940Z,1008.07
2016-10-21T10:57:36.962Z,1008.13
2016-10-21T10:58:36.985Z,1008.08
2016-10-21T10:59:37.006Z,1008.11
2016-10-21T11:00:37.029Z,1008.14
2016-10-21T11:01:37.052Z,1008.11
2016-10-21T11:02:37.073Z,1008.14
2016-10-21T11:03:37.096Z,1008.17
2016-10-21T11:04:37.118Z,1008.09
2016-10-21T11:05:37.143Z,1008.1
2016-10-21T11:06:37.162Z,1008.08
2016-10-21T11:07:37.189Z,1008.09
2016-10-21T11:08:37.210Z,1008.12
2016-10-21T11:09:37.230Z,1008.12
2016-10-21T11:10:37.254Z,1008.1
2016-10-21T11:11:37.275Z,1008.11
2016-10-21T11:12:37.296Z,1008.12
2016-10-21T11:13:37.317Z,1008.12
2016-10-21T11:15:37.362Z,1008.16
2016-10-21T11:16:37.737Z,1008.14
2016-10-21T11:17:37.408Z,1008.12
2016-10-21T11:18:37.431Z,1008.13
2016-10-21T11:19:37.452Z,1008.14
2016-10-21T11:20:37.473Z,1008.09
2016-10-21T11:21:37.495Z,1008.12
2016-10-21T11:22:37.518Z,1008.07
2016-10-21T11:23:37.542Z,1008.1
2016-10-21T11:24:37.564Z,1008.06
2016-10-21T11:25:37.584Z,1008.03
2016-10-21T11:26:37.608Z,1008.04
2016-10-21T11:27:37.630Z,1008.02
2016-10-21T11:28:37.903Z,1008.06
2016-10-21T11:29:37.675Z,1008.04
2016-10-21T11:31:37.722Z,1008.07
2016-10-21T11:32:37.743Z,1008.08
2016-10-21T11:33:37.766Z,1008.03
2016-10-21T11:34:37.786Z,1008.03
2016-10-21T11:35:37.811Z,1008.09
2016-10-21T11:36:37.833Z,1008.07
2016-10-21T11:37:37.853Z,1008.03
2016-10-21T11:38:37.875Z,1008.09
2016-10-21T11:39:38.152Z,1008.05
2016-10-21T11:40:37.919Z,1008.04
2016-10-21T11:41:37.942Z,1008.08
2016-10-21T11:42:37.970Z,1008.05
2016-10-21T11:43:37.986Z,1008.06
2016-10-21T11:44:38.010Z,1008.09
2016-10-21T11:45:38.032Z,1008.04
2016-10-21T11:47:38.076Z,1008.08
2016-10-21T11:48:38.099Z,1008.14
2016-10-21T11:49:38.119Z,1008.14
2016-10-21T11:50:38.140Z,1008.15
2016-10-21T11:51:38.163Z,1008.12
2016-10-21T11:52:38.185Z,1008.13
2016-10-21T11:53:38.210Z,1008.09
2016-10-21T11:54:38.230Z,1008.09
2016-10-21T11:55:38.254Z,1008.07
2016-10-21T11:56:38.276Z,1008.07
2016-10-21T11:57:38.648Z,1008.07
2016-10-21T11:58:38.321Z,1008.07
2016-10-21T11:59:38.343Z,1008.06
2016-10-21T12:00:38.363Z,1008.05
2016-10-21T12:01:38.385Z,1008.1
2016-10-21T12:03:38.431Z,1008.09
2016-10-21T12:04:38.453Z,1008.11
2016-10-21T12:05:38.476Z,1008.08
2016-10-21T12:06:38.496Z,1008.08
2016-10-21T12:07:38.521Z,1008.06
2016-10-21T12:08:38.542Z,1008.06
2016-10-21T12:09:38.563Z,1008.08
2016-10-21T12:10:38.585Z,1008.05
2016-10-21T12:11:38.608Z,1008.08
2016-10-21T12:12:38.629Z,1008.05
2016-10-21T12:13:38.654Z,1008.07
2016-10-21T12:14:38.676Z,1008.1
2016-10-21T12:15:38.698Z,1008.07
2016-10-21T12:16:38.720Z,1008.07
2016-10-21T12:18:38.766Z,1008.04
2016-10-21T12:19:38.790Z,1008.08
2016-10-21T12:20:38.810Z,1008.05
2016-10-21T12:21:38.833Z,1008.04
2016-10-21T12:22:38.856Z,1008.06
2016-10-21T12:23:38.877Z,1008.03
2016-10-21T12:24:38.900Z,1008.02
2016-10-21T12:25:38.926Z,1008.06
2016-10-21T12:26:38.944Z,1008.02
2016-10-21T12:27:38.969Z,1008.04
2016-10-21T12:28:38.990Z,1008.05
2016-10-21T12:29:39.014Z,1008.03
2016-10-21T12:30:39.036Z,1008.05
2016-10-21T12:31:39.060Z,1008.04
2016-10-21T12:32:39.081Z,1008.07
2016-10-21T12:33:39.102Z,1008.07
2016-10-21T12:34:39.123Z,1008
2016-10-21T12:35:39.145Z,1008
2016-10-21T12:36:39.170Z,1008.01
2016-10-21T12:37:39.189Z,1008.04
2016-10-21T12:38:39.214Z,1008.03
2016-10-21T12:39:39.236Z,1008
2016-10-21T12:40:39.259Z,1008.01
2016-10-21T12:41:39.281Z,1008.03
2016-10-21T12:42:39.300Z,1008.04
2016-10-21T12:43:39.325Z,1008.03
2016-10-21T12:44:39.345Z,1008.05
2016-10-21T12:45:39.366Z,1008.03
2016-10-21T12:46:39.388Z,1008.08
2016-10-21T12:47:39.413Z,1008.08
2016-10-21T12:48:39.432Z,1008.04
2016-10-21T12:50:39.479Z,1008.05